sensor_id;sensor_type;location;lat;lon;timestamp;P1;durP1;ratioP1;P2;durP2;ratioP2
70780;SDS011;59514;48.810;2.134;2022-10-16T00:01:29;1.23;;;0.73;;
70780;SDS011;59514;48.810;2.134;2022-10-16T00:03:56;1.98;;;1.02;;
70780;SDS011;59514;48.810;2.134;2022-10-16T00:06:23;2.97;;;0.93;;
70780;SDS011;59514;48.810;2.134;2022-10-16T00:08:49;1.23;;;0.73;;
70780;SDS011;59514;48.810;2.134;2022-10-16T00:11:17;3.63;;;0.93;;
70780;SDS011;59514;48.810;2.134;2022-10-16T00:13:45;1.70;;;0.95;;
70780;SDS011;59514;48.810;2.134;2022-10-16T00:16:11;2.25;;;1.02;;
70780;SDS011;59514;48.810;2.134;2022-10-16T00:18:38;2.00;;;1.10;;
70780;SDS011;59514;48.810;2.134;2022-10-16T00:21:04;3.10;;;0.95;;
70780;SDS011;59514;48.810;2.134;2022-10-16T00:23:38;1.75;;;0.60;;
70780;SDS011;59514;48.810;2.134;2022-10-16T00:26:05;0.95;;;0.70;;
70780;SDS011;59514;48.810;2.134;2022-10-16T00:28:34;1.83;;;0.70;;
70780;SDS011;59514;48.810;2.134;2022-10-16T00:31:02;0.85;;;0.80;;
70780;SDS011;59514;48.810;2.134;2022-10-16T00:33:29;3.20;;;0.88;;
70780;SDS011;59514;48.810;2.134;2022-10-16T00:35:57;0.70;;;0.60;;
70780;SDS011;59514;48.810;2.134;2022-10-16T00:38:23;1.85;;;0.60;;
70780;SDS011;59514;48.810;2.134;2022-10-16T00:40:48;2.05;;;0.80;;
70780;SDS011;59514;48.810;2.134;2022-10-16T00:43:31;2.05;;;0.55;;
70780;SDS011;59514;48.810;2.134;2022-10-16T00:46:04;0.80;;;0.40;;
70780;SDS011;59514;48.810;2.134;2022-10-16T00:48:35;3.03;;;0.60;;
70780;SDS011;59514;48.810;2.134;2022-10-16T00:51:01;1.27;;;0.68;;
70780;SDS011;59514;48.810;2.134;2022-10-16T00:53:27;1.95;;;0.70;;
70780;SDS011;59514;48.810;2.134;2022-10-16T00:55:53;1.60;;;0.50;;
70780;SDS011;59514;48.810;2.134;2022-10-16T00:58:18;2.58;;;0.50;;
70780;SDS011;59514;48.810;2.134;2022-10-16T01:00:45;1.52;;;0.50;;
70780;SDS011;59514;48.810;2.134;2022-10-16T01:03:27;0.47;;;0.32;;
70780;SDS011;59514;48.810;2.134;2022-10-16T01:06:00;0.88;;;0.73;;
70780;SDS011;59514;48.810;2.134;2022-10-16T01:11:57;2.25;;;1.17;;
70780;SDS011;59514;48.810;2.134;2022-10-16T01:14:39;0.60;;;0.50;;
70780;SDS011;59514;48.810;2.134;2022-10-16T01:20:16;3.47;;;0.70;;
70780;SDS011;59514;48.810;2.134;2022-10-16T01:25:52;3.08;;;0.60;;
70780;SDS011;59514;48.810;2.134;2022-10-16T01:28:44;1.50;;;0.70;;
70780;SDS011;59514;48.810;2.134;2022-10-16T01:31:17;1.88;;;0.70;;
70780;SDS011;59514;48.810;2.134;2022-10-16T01:33:46;0.70;;;0.45;;
70780;SDS011;59514;48.810;2.134;2022-10-16T01:36:18;1.75;;;0.70;;
70780;SDS011;59514;48.810;2.134;2022-10-16T01:38:49;2.53;;;0.60;;
70780;SDS011;59514;48.810;2.134;2022-10-16T01:41:31;2.50;;;0.70;;
70780;SDS011;59514;48.810;2.134;2022-10-16T01:44:33;1.13;;;0.60;;
70780;SDS011;59514;48.810;2.134;2022-10-16T01:46:54;1.05;;;0.70;;
70780;SDS011;59514;48.810;2.134;2022-10-16T01:49:21;0.93;;;0.70;;
70780;SDS011;59514;48.810;2.134;2022-10-16T01:51:52;2.65;;;0.80;;
70780;SDS011;59514;48.810;2.134;2022-10-16T01:54:20;1.60;;;0.60;;
70780;SDS011;59514;48.810;2.134;2022-10-16T01:56:48;2.22;;;0.70;;
70780;SDS011;59514;48.810;2.134;2022-10-16T01:59:16;1.08;;;0.65;;
70780;SDS011;59514;48.810;2.134;2022-10-16T02:01:46;1.98;;;0.80;;
70780;SDS011;59514;48.810;2.134;2022-10-16T02:04:21;2.85;;;0.95;;
70780;SDS011;59514;48.810;2.134;2022-10-16T02:06:54;0.50;;;0.50;;
70780;SDS011;59514;48.810;2.134;2022-10-16T02:09:20;2.58;;;0.80;;
70780;SDS011;59514;48.810;2.134;2022-10-16T02:11:46;1.05;;;0.70;;
70780;SDS011;59514;48.810;2.134;2022-10-16T02:14:11;0.95;;;0.68;;
70780;SDS011;59514;48.810;2.134;2022-10-16T02:19:04;1.77;;;0.50;;
70780;SDS011;59514;48.810;2.134;2022-10-16T02:21:38;3.65;;;1.13;;
70780;SDS011;59514;48.810;2.134;2022-10-16T02:24:12;1.98;;;0.75;;
70780;SDS011;59514;48.810;2.134;2022-10-16T02:29:42;1.75;;;0.50;;
70780;SDS011;59514;48.810;2.134;2022-10-16T02:32:15;2.65;;;0.57;;
70780;SDS011;59514;48.810;2.134;2022-10-16T02:34:45;1.45;;;0.70;;
70780;SDS011;59514;48.810;2.134;2022-10-16T02:37:13;1.27;;;0.70;;
70780;SDS011;59514;48.810;2.134;2022-10-16T02:39:39;0.90;;;0.60;;
70780;SDS011;59514;48.810;2.134;2022-10-16T02:42:09;4.05;;;0.70;;
70780;SDS011;59514;48.810;2.134;2022-10-16T02:44:38;1.42;;;0.70;;
70780;SDS011;59514;48.810;2.134;2022-10-16T02:47:04;2.60;;;0.57;;
70780;SDS011;59514;48.810;2.134;2022-10-16T02:49:29;1.52;;;0.50;;
70780;SDS011;59514;48.810;2.134;2022-10-16T02:51:55;2.47;;;0.50;;
70780;SDS011;59514;48.810;2.134;2022-10-16T02:54:20;1.40;;;0.40;;
70780;SDS011;59514;48.810;2.134;2022-10-16T02:56:45;3.33;;;0.77;;
70780;SDS011;59514;48.810;2.134;2022-10-16T02:59:10;1.53;;;0.50;;
70780;SDS011;59514;48.810;2.134;2022-10-16T03:01:36;1.23;;;0.47;;
70780;SDS011;59514;48.810;2.134;2022-10-16T03:04:01;2.38;;;0.82;;
70780;SDS011;59514;48.810;2.134;2022-10-16T03:06:26;0.65;;;0.40;;
70780;SDS011;59514;48.810;2.134;2022-10-16T03:08:52;1.30;;;0.60;;
70780;SDS011;59514;48.810;2.134;2022-10-16T03:11:17;2.42;;;0.68;;
70780;SDS011;59514;48.810;2.134;2022-10-16T03:13:42;1.45;;;0.50;;
70780;SDS011;59514;48.810;2.134;2022-10-16T03:16:08;1.05;;;0.55;;
70780;SDS011;59514;48.810;2.134;2022-10-16T03:18:33;2.17;;;0.63;;
70780;SDS011;59514;48.810;2.134;2022-10-16T03:20:58;2.83;;;0.70;;
70780;SDS011;59514;48.810;2.134;2022-10-16T03:23:24;0.88;;;0.40;;
70780;SDS011;59514;48.810;2.134;2022-10-16T03:25:49;1.83;;;0.50;;
70780;SDS011;59514;48.810;2.134;2022-10-16T03:28:14;1.00;;;0.43;;
70780;SDS011;59514;48.810;2.134;2022-10-16T03:30:40;0.55;;;0.30;;
70780;SDS011;59514;48.810;2.134;2022-10-16T03:33:05;0.90;;;0.33;;
70780;SDS011;59514;48.810;2.134;2022-10-16T03:35:31;1.85;;;0.40;;
70780;SDS011;59514;48.810;2.134;2022-10-16T03:37:56;0.60;;;0.40;;
70780;SDS011;59514;48.810;2.134;2022-10-16T03:40:22;0.95;;;0.40;;
70780;SDS011;59514;48.810;2.134;2022-10-16T03:42:47;2.78;;;0.52;;
70780;SDS011;59514;48.810;2.134;2022-10-16T03:45:13;0.70;;;0.30;;
70780;SDS011;59514;48.810;2.134;2022-10-16T03:47:38;4.45;;;0.68;;
70780;SDS011;59514;48.810;2.134;2022-10-16T03:50:04;1.00;;;0.40;;
70780;SDS011;59514;48.810;2.134;2022-10-16T03:52:29;1.38;;;0.50;;
70780;SDS011;59514;48.810;2.134;2022-10-16T03:54:55;0.98;;;0.63;;
70780;SDS011;59514;48.810;2.134;2022-10-16T03:57:20;2.08;;;0.43;;
70780;SDS011;59514;48.810;2.134;2022-10-16T03:59:46;1.70;;;0.32;;
70780;SDS011;59514;48.810;2.134;2022-10-16T04:02:11;2.10;;;0.40;;
70780;SDS011;59514;48.810;2.134;2022-10-16T04:04:37;0.80;;;0.32;;
70780;SDS011;59514;48.810;2.134;2022-10-16T04:07:02;1.97;;;0.37;;
70780;SDS011;59514;48.810;2.134;2022-10-16T04:09:27;1.17;;;0.50;;
70780;SDS011;59514;48.810;2.134;2022-10-16T04:11:53;1.42;;;0.35;;
70780;SDS011;59514;48.810;2.134;2022-10-16T04:14:18;0.85;;;0.30;;
70780;SDS011;59514;48.810;2.134;2022-10-16T04:16:43;1.63;;;0.47;;
70780;SDS011;59514;48.810;2.134;2022-10-16T04:19:09;0.98;;;0.28;;
70780;SDS011;59514;48.810;2.134;2022-10-16T04:21:35;1.38;;;0.25;;
70780;SDS011;59514;48.810;2.134;2022-10-16T04:24:00;1.05;;;0.40;;
70780;SDS011;59514;48.810;2.134;2022-10-16T04:26:26;0.63;;;0.40;;
70780;SDS011;59514;48.810;2.134;2022-10-16T04:28:51;1.55;;;0.30;;
70780;SDS011;59514;48.810;2.134;2022-10-16T04:31:16;0.40;;;0.20;;
70780;SDS011;59514;48.810;2.134;2022-10-16T04:33:42;1.38;;;0.30;;
70780;SDS011;59514;48.810;2.134;2022-10-16T04:36:08;0.68;;;0.50;;
70780;SDS011;59514;48.810;2.134;2022-10-16T04:38:34;1.48;;;0.50;;
70780;SDS011;59514;48.810;2.134;2022-10-16T04:40:59;0.90;;;0.57;;
70780;SDS011;59514;48.810;2.134;2022-10-16T04:43:25;0.82;;;0.30;;
70780;SDS011;59514;48.810;2.134;2022-10-16T04:45:50;1.08;;;0.40;;
70780;SDS011;59514;48.810;2.134;2022-10-16T04:48:16;1.23;;;0.60;;
70780;SDS011;59514;48.810;2.134;2022-10-16T04:50:42;2.58;;;0.70;;
70780;SDS011;59514;48.810;2.134;2022-10-16T04:53:07;1.83;;;0.40;;
70780;SDS011;59514;48.810;2.134;2022-10-16T04:55:33;3.03;;;0.40;;
70780;SDS011;59514;48.810;2.134;2022-10-16T04:57:59;1.27;;;0.40;;
70780;SDS011;59514;48.810;2.134;2022-10-16T05:00:24;3.33;;;0.40;;
70780;SDS011;59514;48.810;2.134;2022-10-16T05:02:50;0.63;;;0.30;;
70780;SDS011;59514;48.810;2.134;2022-10-16T05:05:16;1.10;;;0.40;;
70780;SDS011;59514;48.810;2.134;2022-10-16T05:07:41;0.75;;;0.30;;
70780;SDS011;59514;48.810;2.134;2022-10-16T05:10:06;2.47;;;0.33;;
70780;SDS011;59514;48.810;2.134;2022-10-16T05:12:32;1.75;;;0.60;;
70780;SDS011;59514;48.810;2.134;2022-10-16T05:14:58;1.98;;;0.63;;
70780;SDS011;59514;48.810;2.134;2022-10-16T05:17:24;1.60;;;0.50;;
70780;SDS011;59514;48.810;2.134;2022-10-16T05:19:50;1.17;;;0.40;;
70780;SDS011;59514;48.810;2.134;2022-10-16T05:22:15;1.08;;;0.50;;
70780;SDS011;59514;48.810;2.134;2022-10-16T05:24:40;1.85;;;0.30;;
70780;SDS011;59514;48.810;2.134;2022-10-16T05:27:06;2.50;;;0.40;;
70780;SDS011;59514;48.810;2.134;2022-10-16T05:29:31;1.35;;;0.30;;
70780;SDS011;59514;48.810;2.134;2022-10-16T05:31:57;1.15;;;0.40;;
70780;SDS011;59514;48.810;2.134;2022-10-16T05:34:22;1.33;;;0.47;;
70780;SDS011;59514;48.810;2.134;2022-10-16T05:36:47;1.23;;;0.30;;
70780;SDS011;59514;48.810;2.134;2022-10-16T05:39:14;2.22;;;0.60;;
70780;SDS011;59514;48.810;2.134;2022-10-16T05:41:40;1.92;;;0.40;;
70780;SDS011;59514;48.810;2.134;2022-10-16T05:44:05;1.35;;;0.28;;
70780;SDS011;59514;48.810;2.134;2022-10-16T05:46:31;1.95;;;0.45;;
70780;SDS011;59514;48.810;2.134;2022-10-16T05:48:57;1.63;;;0.50;;
70780;SDS011;59514;48.810;2.134;2022-10-16T05:51:23;2.55;;;0.50;;
70780;SDS011;59514;48.810;2.134;2022-10-16T05:53:48;1.17;;;0.52;;
70780;SDS011;59514;48.810;2.134;2022-10-16T05:56:13;2.17;;;0.60;;
70780;SDS011;59514;48.810;2.134;2022-10-16T05:58:39;1.58;;;0.47;;
70780;SDS011;59514;48.810;2.134;2022-10-16T06:01:13;2.10;;;0.50;;
70780;SDS011;59514;48.810;2.134;2022-10-16T06:03:39;0.70;;;0.40;;
70780;SDS011;59514;48.810;2.134;2022-10-16T06:06:15;0.80;;;0.70;;
70780;SDS011;59514;48.810;2.134;2022-10-16T06:08:43;1.52;;;0.65;;
70780;SDS011;59514;48.810;2.134;2022-10-16T06:11:11;1.63;;;0.60;;
70780;SDS011;59514;48.810;2.134;2022-10-16T06:13:39;9.70;;;1.10;;
70780;SDS011;59514;48.810;2.134;2022-10-16T06:16:07;1.13;;;0.80;;
70780;SDS011;59514;48.810;2.134;2022-10-16T06:18:33;2.42;;;0.70;;
70780;SDS011;59514;48.810;2.134;2022-10-16T06:20:58;0.82;;;0.47;;
70780;SDS011;59514;48.810;2.134;2022-10-16T06:23:24;3.25;;;0.88;;
70780;SDS011;59514;48.810;2.134;2022-10-16T06:25:50;1.67;;;0.50;;
70780;SDS011;59514;48.810;2.134;2022-10-16T06:28:15;2.03;;;0.85;;
70780;SDS011;59514;48.810;2.134;2022-10-16T06:30:41;1.58;;;0.63;;
70780;SDS011;59514;48.810;2.134;2022-10-16T06:33:10;2.15;;;0.68;;
70780;SDS011;59514;48.810;2.134;2022-10-16T06:35:36;2.67;;;0.63;;
70780;SDS011;59514;48.810;2.134;2022-10-16T06:38:01;2.80;;;1.05;;
70780;SDS011;59514;48.810;2.134;2022-10-16T06:40:27;1.17;;;0.57;;
70780;SDS011;59514;48.810;2.134;2022-10-16T06:42:54;3.55;;;0.63;;
70780;SDS011;59514;48.810;2.134;2022-10-16T06:45:20;2.20;;;0.60;;
70780;SDS011;59514;48.810;2.134;2022-10-16T06:47:45;2.00;;;0.80;;
70780;SDS011;59514;48.810;2.134;2022-10-16T06:50:10;0.70;;;0.47;;
70780;SDS011;59514;48.810;2.134;2022-10-16T06:52:36;1.65;;;0.77;;
70780;SDS011;59514;48.810;2.134;2022-10-16T06:55:01;0.88;;;0.55;;
70780;SDS011;59514;48.810;2.134;2022-10-16T06:57:28;2.45;;;0.52;;
70780;SDS011;59514;48.810;2.134;2022-10-16T06:59:53;1.27;;;0.63;;
70780;SDS011;59514;48.810;2.134;2022-10-16T07:02:19;0.75;;;0.45;;
70780;SDS011;59514;48.810;2.134;2022-10-16T07:04:44;1.58;;;0.40;;
70780;SDS011;59514;48.810;2.134;2022-10-16T07:07:09;0.57;;;0.43;;
70780;SDS011;59514;48.810;2.134;2022-10-16T07:09:35;1.88;;;0.43;;
70780;SDS011;59514;48.810;2.134;2022-10-16T07:12:00;1.83;;;0.43;;
70780;SDS011;59514;48.810;2.134;2022-10-16T07:14:26;1.67;;;0.50;;
70780;SDS011;59514;48.810;2.134;2022-10-16T07:16:51;2.00;;;0.50;;
70780;SDS011;59514;48.810;2.134;2022-10-16T07:19:17;3.30;;;0.65;;
70780;SDS011;59514;48.810;2.134;2022-10-16T07:21:43;1.48;;;0.70;;
70780;SDS011;59514;48.810;2.134;2022-10-16T07:24:13;2.13;;;0.60;;
70780;SDS011;59514;48.810;2.134;2022-10-16T07:26:41;2.10;;;0.77;;
70780;SDS011;59514;48.810;2.134;2022-10-16T07:29:14;2.13;;;0.70;;
70780;SDS011;59514;48.810;2.134;2022-10-16T07:31:42;0.77;;;0.40;;
70780;SDS011;59514;48.810;2.134;2022-10-16T07:34:07;0.63;;;0.40;;
70780;SDS011;59514;48.810;2.134;2022-10-16T07:36:33;2.08;;;0.50;;
70780;SDS011;59514;48.810;2.134;2022-10-16T07:38:58;2.15;;;0.60;;
70780;SDS011;59514;48.810;2.134;2022-10-16T07:41:23;0.77;;;0.77;;
70780;SDS011;59514;48.810;2.134;2022-10-16T07:43:50;1.98;;;1.25;;
70780;SDS011;59514;48.810;2.134;2022-10-16T07:46:20;1.25;;;1.02;;
70780;SDS011;59514;48.810;2.134;2022-10-16T07:48:47;2.03;;;1.35;;
70780;SDS011;59514;48.810;2.134;2022-10-16T07:51:18;1.30;;;0.90;;
70780;SDS011;59514;48.810;2.134;2022-10-16T07:53:45;2.00;;;1.38;;
70780;SDS011;59514;48.810;2.134;2022-10-16T07:56:11;2.25;;;0.90;;
70780;SDS011;59514;48.810;2.134;2022-10-16T07:58:37;1.52;;;0.80;;
70780;SDS011;59514;48.810;2.134;2022-10-16T08:01:03;3.78;;;1.13;;
70780;SDS011;59514;48.810;2.134;2022-10-16T08:03:31;1.20;;;0.73;;
70780;SDS011;59514;48.810;2.134;2022-10-16T08:05:57;1.17;;;0.80;;
70780;SDS011;59514;48.810;2.134;2022-10-16T08:08:23;1.35;;;0.85;;
70780;SDS011;59514;48.810;2.134;2022-10-16T08:10:49;1.35;;;0.88;;
70780;SDS011;59514;48.810;2.134;2022-10-16T08:13:14;1.58;;;0.93;;
70780;SDS011;59514;48.810;2.134;2022-10-16T08:15:40;1.42;;;0.60;;
70780;SDS011;59514;48.810;2.134;2022-10-16T08:18:10;1.10;;;1.00;;
70780;SDS011;59514;48.810;2.134;2022-10-16T08:20:37;4.75;;;1.10;;
70780;SDS011;59514;48.810;2.134;2022-10-16T08:23:03;1.52;;;0.82;;
70780;SDS011;59514;48.810;2.134;2022-10-16T08:25:28;1.60;;;0.70;;
70780;SDS011;59514;48.810;2.134;2022-10-16T08:27:54;1.80;;;0.60;;
70780;SDS011;59514;48.810;2.134;2022-10-16T08:30:21;0.80;;;0.80;;
70780;SDS011;59514;48.810;2.134;2022-10-16T08:32:47;1.55;;;0.80;;
70780;SDS011;59514;48.810;2.134;2022-10-16T08:35:13;1.65;;;1.27;;
70780;SDS011;59514;48.810;2.134;2022-10-16T08:37:40;2.75;;;1.17;;
70780;SDS011;59514;48.810;2.134;2022-10-16T08:40:06;2.45;;;1.30;;
70780;SDS011;59514;48.810;2.134;2022-10-16T08:42:45;2.35;;;1.20;;
70780;SDS011;59514;48.810;2.134;2022-10-16T08:50:36;0.95;;;0.88;;
70780;SDS011;59514;48.810;2.134;2022-10-16T08:53:05;1.35;;;0.80;;
70780;SDS011;59514;48.810;2.134;2022-10-16T08:58:01;2.88;;;1.13;;
70780;SDS011;59514;48.810;2.134;2022-10-16T09:00:35;1.75;;;0.70;;
70780;SDS011;59514;48.810;2.134;2022-10-16T09:03:11;1.00;;;0.88;;
70780;SDS011;59514;48.810;2.134;2022-10-16T09:08:15;0.67;;;0.60;;
70780;SDS011;59514;48.810;2.134;2022-10-16T09:16:26;1.88;;;0.70;;
70780;SDS011;59514;48.810;2.134;2022-10-16T09:21:44;1.30;;;0.70;;
70780;SDS011;59514;48.810;2.134;2022-10-16T09:24:14;2.75;;;0.50;;
70780;SDS011;59514;48.810;2.134;2022-10-16T09:26:44;1.50;;;0.63;;
70780;SDS011;59514;48.810;2.134;2022-10-16T09:29:11;1.67;;;0.60;;
70780;SDS011;59514;48.810;2.134;2022-10-16T09:31:38;0.93;;;0.50;;
70780;SDS011;59514;48.810;2.134;2022-10-16T09:34:03;1.85;;;0.50;;
70780;SDS011;59514;48.810;2.134;2022-10-16T09:36:35;1.73;;;0.45;;
70780;SDS011;59514;48.810;2.134;2022-10-16T09:39:07;0.35;;;0.35;;
70780;SDS011;59514;48.810;2.134;2022-10-16T09:41:34;2.47;;;0.60;;
70780;SDS011;59514;48.810;2.134;2022-10-16T09:44:02;1.45;;;0.50;;
70780;SDS011;59514;48.810;2.134;2022-10-16T09:46:34;3.20;;;0.40;;
70780;SDS011;59514;48.810;2.134;2022-10-16T09:49:05;1.60;;;0.57;;
70780;SDS011;59514;48.810;2.134;2022-10-16T09:51:44;0.70;;;0.55;;
70780;SDS011;59514;48.810;2.134;2022-10-16T09:54:20;1.55;;;0.63;;
70780;SDS011;59514;48.810;2.134;2022-10-16T09:56:46;1.75;;;0.63;;
70780;SDS011;59514;48.810;2.134;2022-10-16T09:59:20;2.10;;;0.90;;
70780;SDS011;59514;48.810;2.134;2022-10-16T10:01:49;1.27;;;0.60;;
70780;SDS011;59514;48.810;2.134;2022-10-16T10:04:17;2.25;;;0.80;;
70780;SDS011;59514;48.810;2.134;2022-10-16T10:06:54;1.10;;;0.60;;
70780;SDS011;59514;48.810;2.134;2022-10-16T10:16:51;2.47;;;1.50;;
70780;SDS011;59514;48.810;2.134;2022-10-16T10:19:22;3.05;;;2.72;;
70780;SDS011;59514;48.810;2.134;2022-10-16T10:21:49;2.92;;;1.00;;
70780;SDS011;59514;48.810;2.134;2022-10-16T10:24:17;2.35;;;1.10;;
70780;SDS011;59514;48.810;2.134;2022-10-16T10:29:27;1.20;;;0.90;;
70780;SDS011;59514;48.810;2.134;2022-10-16T10:32:09;4.07;;;3.67;;
70780;SDS011;59514;48.810;2.134;2022-10-16T10:37:36;2.20;;;1.60;;
70780;SDS011;59514;48.810;2.134;2022-10-16T10:43:04;2.20;;;1.20;;
70780;SDS011;59514;48.810;2.134;2022-10-16T10:45:47;1.85;;;0.98;;
70780;SDS011;59514;48.810;2.134;2022-10-16T10:50:56;2.20;;;1.20;;
70780;SDS011;59514;48.810;2.134;2022-10-16T10:53:47;3.20;;;1.80;;
70780;SDS011;59514;48.810;2.134;2022-10-16T10:56:57;1.92;;;1.60;;
70780;SDS011;59514;48.810;2.134;2022-10-16T11:07:48;2.00;;;0.73;;
70780;SDS011;59514;48.810;2.134;2022-10-16T11:10:21;3.63;;;0.60;;
70780;SDS011;59514;48.810;2.134;2022-10-16T11:12:49;1.75;;;0.70;;
70780;SDS011;59514;48.810;2.134;2022-10-16T11:15:21;0.95;;;0.73;;
70780;SDS011;59514;48.810;2.134;2022-10-16T11:18:07;3.95;;;2.45;;
70780;SDS011;59514;48.810;2.134;2022-10-16T11:20:42;2.92;;;2.28;;
70780;SDS011;59514;48.810;2.134;2022-10-16T11:23:17;2.10;;;1.33;;
70780;SDS011;59514;48.810;2.134;2022-10-16T11:25:54;2.35;;;0.70;;
70780;SDS011;59514;48.810;2.134;2022-10-16T11:28:34;1.13;;;0.50;;
70780;SDS011;59514;48.810;2.134;2022-10-16T11:31:24;0.73;;;0.70;;
70780;SDS011;59514;48.810;2.134;2022-10-16T11:34:06;1.25;;;0.70;;
70780;SDS011;59514;48.810;2.134;2022-10-16T11:36:51;1.45;;;1.00;;
70780;SDS011;59514;48.810;2.134;2022-10-16T11:39:31;4.60;;;2.72;;
70780;SDS011;59514;48.810;2.134;2022-10-16T11:42:04;3.42;;;2.08;;
70780;SDS011;59514;48.810;2.134;2022-10-16T11:50:13;1.48;;;0.95;;
70780;SDS011;59514;48.810;2.134;2022-10-16T11:55:14;0.90;;;0.50;;
70780;SDS011;59514;48.810;2.134;2022-10-16T11:57:44;0.90;;;0.47;;
70780;SDS011;59514;48.810;2.134;2022-10-16T12:02:43;0.50;;;0.40;;
70780;SDS011;59514;48.810;2.134;2022-10-16T12:05:18;1.05;;;0.55;;
70780;SDS011;59514;48.810;2.134;2022-10-16T12:10:45;0.40;;;0.35;;
70780;SDS011;59514;48.810;2.134;2022-10-16T12:13:31;1.65;;;1.00;;
70780;SDS011;59514;48.810;2.134;2022-10-16T12:18:38;1.02;;;0.68;;
70780;SDS011;59514;48.810;2.134;2022-10-16T12:21:08;1.60;;;0.60;;
70780;SDS011;59514;48.810;2.134;2022-10-16T12:23:59;0.70;;;0.55;;
70780;SDS011;59514;48.810;2.134;2022-10-16T12:26:25;1.83;;;0.73;;
70780;SDS011;59514;48.810;2.134;2022-10-16T12:28:53;0.80;;;0.45;;
70780;SDS011;59514;48.810;2.134;2022-10-16T12:31:20;0.77;;;0.70;;
70780;SDS011;59514;48.810;2.134;2022-10-16T12:33:54;2.00;;;1.80;;
70780;SDS011;59514;48.810;2.134;2022-10-16T12:36:26;2.17;;;1.60;;
70780;SDS011;59514;48.810;2.134;2022-10-16T12:38:55;0.90;;;0.55;;
70780;SDS011;59514;48.810;2.134;2022-10-16T12:41:38;1.95;;;0.85;;
70780;SDS011;59514;48.810;2.134;2022-10-16T12:44:05;1.38;;;0.68;;
70780;SDS011;59514;48.810;2.134;2022-10-16T12:46:46;0.80;;;0.70;;
70780;SDS011;59514;48.810;2.134;2022-10-16T12:51:37;0.93;;;0.80;;
70780;SDS011;59514;48.810;2.134;2022-10-16T12:54:12;0.65;;;0.63;;
70780;SDS011;59514;48.810;2.134;2022-10-16T13:02:01;1.33;;;0.73;;
70780;SDS011;59514;48.810;2.134;2022-10-16T13:10:15;1.38;;;1.27;;
70780;SDS011;59514;48.810;2.134;2022-10-16T13:13:09;2.03;;;1.85;;
70780;SDS011;59514;48.810;2.134;2022-10-16T13:16:35;2.30;;;0.82;;
70780;SDS011;59514;48.810;2.134;2022-10-16T13:24:17;1.80;;;1.65;;
70780;SDS011;59514;48.810;2.134;2022-10-16T13:26:50;5.25;;;4.43;;
70780;SDS011;59514;48.810;2.134;2022-10-16T13:29:23;1.20;;;1.10;;
70780;SDS011;59514;48.810;2.134;2022-10-16T13:31:49;2.75;;;1.10;;
70780;SDS011;59514;48.810;2.134;2022-10-16T13:34:15;1.20;;;1.10;;
70780;SDS011;59514;48.810;2.134;2022-10-16T13:36:44;1.25;;;1.15;;
70780;SDS011;59514;48.810;2.134;2022-10-16T13:44:25;1.75;;;1.33;;
70780;SDS011;59514;48.810;2.134;2022-10-16T13:46:59;1.25;;;1.15;;
70780;SDS011;59514;48.810;2.134;2022-10-16T13:49:25;1.25;;;1.15;;
70780;SDS011;59514;48.810;2.134;2022-10-16T13:51:54;1.38;;;1.27;;
70780;SDS011;59514;48.810;2.134;2022-10-16T13:54:24;1.98;;;1.30;;
70780;SDS011;59514;48.810;2.134;2022-10-16T13:56:51;1.45;;;1.20;;
70780;SDS011;59514;48.810;2.134;2022-10-16T13:59:24;2.22;;;1.33;;
70780;SDS011;59514;48.810;2.134;2022-10-16T14:01:51;1.70;;;1.05;;
70780;SDS011;59514;48.810;2.134;2022-10-16T14:04:21;2.03;;;1.30;;
70780;SDS011;59514;48.810;2.134;2022-10-16T14:06:48;1.48;;;1.33;;
70780;SDS011;59514;48.810;2.134;2022-10-16T14:09:19;1.40;;;1.30;;
70780;SDS011;59514;48.810;2.134;2022-10-16T14:11:50;2.13;;;1.60;;
70780;SDS011;59514;48.810;2.134;2022-10-16T14:14:18;2.85;;;1.75;;
70780;SDS011;59514;48.810;2.134;2022-10-16T14:16:44;1.52;;;1.40;;
70780;SDS011;59514;48.810;2.134;2022-10-16T14:19:21;1.95;;;1.85;;
70780;SDS011;59514;48.810;2.134;2022-10-16T14:21:50;2.22;;;1.70;;
70780;SDS011;59514;48.810;2.134;2022-10-16T14:24:24;1.50;;;1.40;;
70780;SDS011;59514;48.810;2.134;2022-10-16T14:26:57;2.00;;;1.43;;
70780;SDS011;59514;48.810;2.134;2022-10-16T14:29:24;2.05;;;1.30;;
70780;SDS011;59514;48.810;2.134;2022-10-16T14:32:00;1.80;;;1.30;;
70780;SDS011;59514;48.810;2.134;2022-10-16T14:36:58;1.88;;;1.40;;
70780;SDS011;59514;48.810;2.134;2022-10-16T14:39:25;2.72;;;1.60;;
70780;SDS011;59514;48.810;2.134;2022-10-16T14:41:51;2.60;;;1.67;;
70780;SDS011;59514;48.810;2.134;2022-10-16T14:44:20;1.83;;;1.50;;
70780;SDS011;59514;48.810;2.134;2022-10-16T14:46:53;1.70;;;1.60;;
70780;SDS011;59514;48.810;2.134;2022-10-16T14:49:18;1.42;;;1.33;;
70780;SDS011;59514;48.810;2.134;2022-10-16T14:51:46;1.95;;;1.40;;
70780;SDS011;59514;48.810;2.134;2022-10-16T14:54:13;1.88;;;1.20;;
70780;SDS011;59514;48.810;2.134;2022-10-16T14:59:30;1.90;;;1.40;;
70780;SDS011;59514;48.810;2.134;2022-10-16T15:02:02;2.15;;;1.50;;
70780;SDS011;59514;48.810;2.134;2022-10-16T15:07:08;2.33;;;1.50;;
70780;SDS011;59514;48.810;2.134;2022-10-16T15:09:34;3.73;;;1.70;;
70780;SDS011;59514;48.810;2.134;2022-10-16T15:11:59;2.10;;;1.77;;
70780;SDS011;59514;48.810;2.134;2022-10-16T15:14:24;4.22;;;3.83;;
70780;SDS011;59514;48.810;2.134;2022-10-16T15:16:49;4.57;;;4.07;;
70780;SDS011;59514;48.810;2.134;2022-10-16T15:19:15;3.47;;;2.33;;
70780;SDS011;59514;48.810;2.134;2022-10-16T15:21:40;2.78;;;2.17;;
70780;SDS011;59514;48.810;2.134;2022-10-16T15:24:08;2.80;;;1.70;;
70780;SDS011;59514;48.810;2.134;2022-10-16T15:26:37;4.85;;;2.03;;
70780;SDS011;59514;48.810;2.134;2022-10-16T15:29:03;2.53;;;1.88;;
70780;SDS011;59514;48.810;2.134;2022-10-16T15:31:28;2.85;;;2.08;;
70780;SDS011;59514;48.810;2.134;2022-10-16T15:33:54;3.20;;;1.92;;
70780;SDS011;59514;48.810;2.134;2022-10-16T15:36:26;2.50;;;2.13;;
70780;SDS011;59514;48.810;2.134;2022-10-16T15:38:53;1.88;;;1.77;;
70780;SDS011;59514;48.810;2.134;2022-10-16T15:41:18;4.05;;;1.85;;
70780;SDS011;59514;48.810;2.134;2022-10-16T15:43:44;3.17;;;2.10;;
70780;SDS011;59514;48.810;2.134;2022-10-16T15:46:10;1.98;;;1.77;;
70780;SDS011;59514;48.810;2.134;2022-10-16T15:48:37;2.60;;;2.03;;
70780;SDS011;59514;48.810;2.134;2022-10-16T15:51:06;2.38;;;1.90;;
70780;SDS011;59514;48.810;2.134;2022-10-16T15:53:32;1.83;;;1.70;;
70780;SDS011;59514;48.810;2.134;2022-10-16T15:56:01;3.95;;;2.15;;
70780;SDS011;59514;48.810;2.134;2022-10-16T15:58:27;2.88;;;2.20;;
70780;SDS011;59514;48.810;2.134;2022-10-16T16:00:56;3.53;;;2.33;;
70780;SDS011;59514;48.810;2.134;2022-10-16T16:03:22;3.28;;;2.40;;
70780;SDS011;59514;48.810;2.134;2022-10-16T16:05:48;5.25;;;3.70;;
70780;SDS011;59514;48.810;2.134;2022-10-16T16:08:13;4.03;;;2.90;;
70780;SDS011;59514;48.810;2.134;2022-10-16T16:10:39;3.85;;;3.30;;
70780;SDS011;59514;48.810;2.134;2022-10-16T16:13:04;21.38;;;6.35;;
70780;SDS011;59514;48.810;2.134;2022-10-16T16:15:29;10.07;;;4.25;;
70780;SDS011;59514;48.810;2.134;2022-10-16T16:17:55;6.13;;;3.10;;
70780;SDS011;59514;48.810;2.134;2022-10-16T16:20:20;4.43;;;2.90;;
70780;SDS011;59514;48.810;2.134;2022-10-16T16:22:45;3.95;;;3.05;;
70780;SDS011;59514;48.810;2.134;2022-10-16T16:25:11;3.58;;;3.00;;
70780;SDS011;59514;48.810;2.134;2022-10-16T16:27:36;3.50;;;3.17;;
70780;SDS011;59514;48.810;2.134;2022-10-16T16:30:03;2.85;;;2.63;;
70780;SDS011;59514;48.810;2.134;2022-10-16T16:32:30;5.43;;;3.85;;
70780;SDS011;59514;48.810;2.134;2022-10-16T16:34:55;4.25;;;3.50;;
70780;SDS011;59514;48.810;2.134;2022-10-16T16:37:20;4.70;;;3.63;;
70780;SDS011;59514;48.810;2.134;2022-10-16T16:39:46;5.70;;;4.22;;
70780;SDS011;59514;48.810;2.134;2022-10-16T16:42:11;4.97;;;3.50;;
70780;SDS011;59514;48.810;2.134;2022-10-16T16:44:37;5.22;;;3.92;;
70780;SDS011;59514;48.810;2.134;2022-10-16T16:47:03;7.07;;;4.78;;